Hovedside
METAR-TAF:

METAR-TAF

Lufthavner :

Odessa, Ukraina

breddegrad: 46-26N, lengdegrad: 030-46E, høyde over havet: 42 m

Gjeldene værobservasjon

Denne rapporten ble laget for 30 minutter siden, klokken 03:30 UTC
Flau vind
Temperatur 12°C
Luftfuktighet 100%
Trykk 1022 hPa
Sikt: 0200 m
Delvis dekket av tåke

METAR: UKOO 200330Z 00000MPS 6000 0200N R16/0550N PRFG NSC 12/12 Q1022 R16/090060 NOSIG

Tid: 07:00 (04:00 UTC)

Varsel

Denne rapporten ble laget for 4 timer og 5 minutter siden, klokken 23:55 UTC
Varsel gyldig fra 19. klokken 23 UTC til 20. klokken 24 UTC
Vind 6 kt fra Nord-nordøst
Sikt: 2100 m
Brutte skyer i en høyde av 700 ft
dis
Midlertidig
fra 19. klokken 23 UTC til 20. klokken 05 UTC
Sikt: 0300 m
i en høyde av 200 ft
tåke
Blir
fra 20. klokken 05 UTC til 20. klokken 06 UTC
Vind 6 kt fra Sør
Sikt: 6000 m

TAF: UKOO 192355Z 1923/2024 02003MPS 2100 BR BKN007 TEMPO 1923/2005 0300 FG VV002 BECMG 2005/2006 19003MPS 6000 NSW

Værobservasjoner og værvarsel for over 4000 flyplasser (METAR- og TAF-rapporter).

Tilgjengelige stasjoner er representert av de røde og gule prikkene på kartet.

Hold musepekeren over prikken for å se navnet på stasjonen.

Klikk så for å se værobservasjoner og -varsler.

For å forandre kartet kan du klikke på den grønne knappen med svart kryss for å zoome inn, på den grønne knappen med strek for å zoome ut, eller på de grønne pilene for å se tilstøtende kart.


METAR-TAF: